createdAt,value
2022-08-27T00:00:49.850Z,100917.72
2022-08-27T00:03:17.738Z,100920.38
2022-08-27T00:05:44.851Z,100917.22
2022-08-27T00:08:13.524Z,100911.78
2022-08-27T00:10:41.469Z,100912.72
2022-08-27T00:13:08.577Z,100911.88
2022-08-27T00:15:35.801Z,100910.16
2022-08-27T00:18:02.510Z,100907.81
2022-08-27T00:20:29.296Z,100899.91
2022-08-27T00:22:56.374Z,100906.84
2022-08-27T00:25:23.481Z,100907.81
2022-08-27T00:27:50.477Z,100910.28
2022-08-27T00:30:20.289Z,100906.97
2022-08-27T00:32:47.311Z,100908.75
2022-08-27T00:35:16.058Z,100907.19
2022-08-27T00:37:43.873Z,100907.28
2022-08-27T00:40:15.877Z,100904.00
2022-08-27T00:42:45.960Z,100904.97
2022-08-27T00:45:15.378Z,100908.47
2022-08-27T00:47:46.568Z,100904.75
2022-08-27T00:50:17.979Z,100894.28
2022-08-27T00:52:49.094Z,100897.69
2022-08-27T00:55:22.435Z,100901.13
2022-08-27T00:58:13.197Z,100903.03
2022-08-27T01:00:40.154Z,100909.13
2022-08-27T01:03:07.859Z,100903.78
2022-08-27T01:05:37.038Z,100899.41
2022-08-27T01:08:10.175Z,100901.44
2022-08-27T01:10:39.489Z,100898.13
2022-08-27T01:13:12.559Z,100893.88
2022-08-27T01:15:41.314Z,100894.84
2022-08-27T01:18:09.303Z,100898.34
2022-08-27T01:21:01.335Z,100900.41
2022-08-27T01:23:30.425Z,100904.00
2022-08-27T01:25:59.091Z,100901.56
2022-08-27T01:28:29.236Z,100896.34
2022-08-27T01:31:08.290Z,100906.94
2022-08-27T01:33:35.334Z,100897.75
2022-08-27T01:36:02.836Z,100903.84
2022-08-27T01:38:30.736Z,100895.84
2022-08-27T01:41:00.168Z,100895.63
2022-08-27T01:43:28.313Z,100899.13
2022-08-27T01:45:54.953Z,100888.56
2022-08-27T01:48:22.213Z,100891.22
2022-08-27T01:50:49.400Z,100882.63
2022-08-27T01:53:21.252Z,100890.81
2022-08-27T01:55:50.004Z,100881.13
2022-08-27T01:58:18.566Z,100897.09
2022-08-27T02:00:50.121Z,100892.00
2022-08-27T02:03:22.889Z,100891.38
2022-08-27T02:05:49.632Z,100888.81
2022-08-27T02:08:17.748Z,100884.56
2022-08-27T02:10:46.290Z,100891.81
2022-08-27T02:13:13.478Z,100885.75
2022-08-27T02:15:41.572Z,100886.59
2022-08-27T02:18:09.116Z,100894.69
2022-08-27T02:20:36.793Z,100890.44
2022-08-27T02:23:04.848Z,100888.94
2022-08-27T02:25:32.045Z,100886.72
2022-08-27T02:28:00.398Z,100888.84
2022-08-27T02:30:29.635Z,100899.84
2022-08-27T02:32:56.472Z,100895.56
2022-08-27T02:35:24.618Z,100904.19
2022-08-27T02:37:52.541Z,100905.50
2022-08-27T02:40:22.439Z,100901.31
2022-08-27T02:42:49.920Z,100900.59
2022-08-27T02:45:17.777Z,100897.81
2022-08-27T02:47:44.818Z,100900.47
2022-08-27T02:50:13.603Z,100890.00
2022-08-27T02:52:41.477Z,100893.59
2022-08-27T02:55:08.698Z,100897.13
2022-08-27T02:57:36.734Z,100889.13
2022-08-27T03:00:18.014Z,100891.06
2022-08-27T03:02:45.313Z,100891.16
2022-08-27T03:05:13.408Z,100894.13
2022-08-27T03:07:40.901Z,100889.13
2022-08-27T03:10:09.424Z,100897.09
2022-08-27T03:12:36.581Z,100899.03
2022-08-27T03:15:10.226Z,100900.09
2022-08-27T03:17:55.659Z,100902.22
2022-08-27T03:20:23.565Z,100903.25
2022-08-27T03:22:50.392Z,100901.00
2022-08-27T03:25:17.217Z,100896.66
2022-08-27T03:27:44.128Z,100895.25
2022-08-27T03:30:18.491Z,100897.19
2022-08-27T03:32:45.460Z,100896.31
2022-08-27T03:35:13.295Z,100901.53
2022-08-27T03:37:40.297Z,100899.28
2022-08-27T03:40:08.299Z,100891.69
2022-08-27T03:42:36.206Z,100893.81
2022-08-27T03:45:03.861Z,100894.00
2022-08-27T03:47:30.548Z,100892.31
2022-08-27T03:49:57.288Z,100897.81
2022-08-27T03:52:23.938Z,100892.63
2022-08-27T03:54:50.763Z,100890.06
2022-08-27T03:57:17.541Z,100889.31
2022-08-27T03:59:44.618Z,100887.63
2022-08-27T04:02:11.943Z,100892.16
2022-08-27T04:04:41.798Z,100901.00
2022-08-27T04:07:10.575Z,100895.78
2022-08-27T04:09:37.293Z,100889.69
2022-08-27T04:12:04.075Z,100888.13
2022-08-27T04:14:31.114Z,100896.19
2022-08-27T04:16:58.028Z,100890.97
2022-08-27T04:19:28.525Z,100889.06
2022-08-27T04:22:00.528Z,100893.63
2022-08-27T04:24:27.646Z,100890.88
2022-08-27T04:26:54.425Z,100890.09
2022-08-27T04:29:21.103Z,100894.38
2022-08-27T04:31:48.157Z,100891.72
2022-08-27T04:34:16.568Z,100899.69
2022-08-27T04:36:43.185Z,100903.16
2022-08-27T04:39:09.984Z,100892.31
2022-08-27T04:41:36.594Z,100897.53
2022-08-27T04:44:09.833Z,100900.84
2022-08-27T04:46:39.209Z,100899.78
2022-08-27T04:49:10.237Z,100900.53
2022-08-27T04:51:40.095Z,100898.09
2022-08-27T04:54:08.587Z,100901.50
2022-08-27T04:56:36.962Z,100893.63
2022-08-27T04:59:04.753Z,100894.13
2022-08-27T05:01:31.986Z,100902.47
2022-08-27T05:03:58.985Z,100899.59
2022-08-27T05:06:26.479Z,100896.84
2022-08-27T05:08:54.469Z,100897.69
2022-08-27T05:11:23.230Z,100897.47
2022-08-27T05:13:50.272Z,100909.84
2022-08-27T05:16:20.719Z,100907.38
2022-08-27T05:18:48.934Z,100902.16
2022-08-27T05:21:19.007Z,100907.69
2022-08-27T05:23:45.852Z,100908.72
2022-08-27T05:26:12.544Z,100907.03
2022-08-27T05:28:39.458Z,100902.56
2022-08-27T05:31:11.310Z,100906.94
2022-08-27T05:33:39.509Z,100907.78
2022-08-27T05:36:07.786Z,100900.75
2022-08-27T05:38:35.034Z,100900.94
2022-08-27T05:41:10.976Z,100913.59
2022-08-27T05:43:39.119Z,100911.22
2022-08-27T05:46:08.264Z,100910.59
2022-08-27T05:48:37.058Z,100921.41
2022-08-27T05:51:31.537Z,100909.72
2022-08-27T05:54:04.553Z,100919.41
2022-08-27T05:56:35.961Z,100925.56
2022-08-27T05:59:21.171Z,100925.41
2022-08-27T06:01:50.339Z,100927.03
2022-08-27T06:04:18.788Z,100939.94
2022-08-27T06:06:46.695Z,100927.38
2022-08-27T06:09:16.718Z,100922.25
2022-08-27T06:11:44.188Z,100927.66
2022-08-27T06:14:11.240Z,100924.16
2022-08-27T06:16:39.581Z,100924.16
2022-08-27T06:19:07.100Z,100927.38
2022-08-27T06:21:34.886Z,100926.81
2022-08-27T06:24:01.746Z,100923.97
2022-08-27T06:26:28.442Z,100922.81
2022-08-27T06:28:55.561Z,100926.16
2022-08-27T06:31:27.601Z,100924.34
2022-08-27T06:33:58.954Z,100931.06
2022-08-27T06:36:37.038Z,100940.53
2022-08-27T06:39:04.877Z,100935.91
2022-08-27T06:41:32.914Z,100938.34
2022-08-27T06:43:59.815Z,100943.38
2022-08-27T06:46:29.777Z,100940.53
2022-08-27T06:48:59.041Z,100944.47
2022-08-27T06:51:31.878Z,100947.66
2022-08-27T06:54:01.494Z,100943.03
2022-08-27T06:56:29.247Z,100946.34
2022-08-27T06:58:58.278Z,100951.25
2022-08-27T07:01:31.370Z,100946.66
2022-08-27T07:04:02.190Z,100950.75
2022-08-27T07:06:30.374Z,100955.75
2022-08-27T07:08:57.667Z,100958.13
2022-08-27T07:11:25.392Z,100960.56
2022-08-27T07:13:52.664Z,100962.06
2022-08-27T07:16:23.365Z,100971.47
2022-08-27T07:18:52.824Z,100972.88
2022-08-27T07:21:20.576Z,100969.03
2022-08-27T07:23:48.932Z,100979.41
2022-08-27T07:26:16.123Z,100979.59
2022-08-27T07:28:44.444Z,100977.50
2022-08-27T07:31:13.129Z,100980.81
2022-08-27T07:33:42.131Z,100980.28
2022-08-27T07:36:17.440Z,100991.16
2022-08-27T07:38:44.397Z,100985.53
2022-08-27T07:41:23.715Z,100988.59
2022-08-27T07:44:15.669Z,100985.31
2022-08-27T07:46:47.589Z,100990.22
2022-08-27T07:49:16.429Z,100989.78
2022-08-27T07:51:43.013Z,100992.03
2022-08-27T07:54:10.027Z,100989.66
2022-08-27T07:56:36.817Z,100993.63
2022-08-27T07:59:03.598Z,100988.81
2022-08-27T08:01:30.485Z,100993.69
2022-08-27T08:03:57.393Z,100993.28
2022-08-27T08:06:24.077Z,100990.31
2022-08-27T08:08:50.906Z,100992.66
2022-08-27T08:11:20.098Z,100977.38
2022-08-27T08:13:47.986Z,100988.69
2022-08-27T08:16:14.942Z,100983.13
2022-08-27T08:18:41.719Z,100981.19
2022-08-27T08:21:11.650Z,100987.16
2022-08-27T08:23:38.677Z,100997.63
2022-08-27T08:26:06.273Z,100996.66
2022-08-27T08:28:32.975Z,100992.16
2022-08-27T08:30:59.904Z,100990.03
2022-08-27T08:33:27.869Z,100991.59
2022-08-27T08:35:54.834Z,100993.09
2022-08-27T08:38:21.866Z,100996.28
2022-08-27T08:40:53.440Z,101002.22
2022-08-27T08:43:40.140Z,100999.44
2022-08-27T08:46:40.174Z,100998.28
2022-08-27T08:49:25.266Z,100999.75
2022-08-27T08:51:56.230Z,100989.69
2022-08-27T08:54:30.644Z,101000.03
2022-08-27T08:57:06.821Z,100992.66
2022-08-27T08:59:44.760Z,101001.41
2022-08-27T09:02:15.399Z,101003.75
2022-08-27T09:04:43.686Z,100998.91
2022-08-27T09:07:17.229Z,101008.59
2022-08-27T09:09:50.562Z,101004.84
2022-08-27T09:12:22.607Z,101010.69
2022-08-27T09:14:53.976Z,101012.28
2022-08-27T09:17:20.890Z,101010.34
2022-08-27T09:19:48.406Z,101010.13
2022-08-27T09:22:38.385Z,101010.69
2022-08-27T09:25:25.386Z,101014.81
2022-08-27T09:27:59.640Z,101009.34
2022-08-27T09:30:33.973Z,101013.63
2022-08-27T09:33:06.919Z,101017.88
2022-08-27T09:35:42.662Z,101015.72
2022-08-27T09:38:10.149Z,101014.38
2022-08-27T09:40:49.088Z,101011.47
2022-08-27T09:43:16.954Z,101025.97
2022-08-27T09:45:48.872Z,101019.66
2022-08-27T09:48:20.236Z,101014.41
2022-08-27T09:50:51.362Z,101024.59
2022-08-27T09:53:32.117Z,101015.97
2022-08-27T09:56:01.702Z,101017.56
2022-08-27T09:58:44.494Z,101004.09
2022-08-27T10:01:24.330Z,101011.88
2022-08-27T10:03:51.564Z,101005.53
2022-08-27T10:06:31.930Z,101009.91
2022-08-27T10:09:13.656Z,101011.63
2022-08-27T10:12:19.473Z,101019.41
2022-08-27T10:14:52.531Z,101009.81
2022-08-27T10:17:28.179Z,101010.94
2022-08-27T10:20:04.081Z,101015.16
2022-08-27T10:22:45.910Z,101005.22
2022-08-27T10:25:40.177Z,101008.16
2022-08-27T10:28:16.749Z,101013.63
2022-08-27T10:30:52.832Z,101007.78
2022-08-27T10:33:43.601Z,101004.66
2022-08-27T10:36:44.711Z,101003.09
2022-08-27T10:39:52.528Z,100997.72
2022-08-27T10:42:43.465Z,100997.09
2022-08-27T10:45:10.166Z,101001.47
2022-08-27T10:47:53.147Z,100998.16
2022-08-27T10:50:40.979Z,100991.44
2022-08-27T10:53:30.267Z,100991.31
2022-08-27T10:56:25.733Z,100997.88
2022-08-27T10:59:12.641Z,100998.81
2022-08-27T11:02:11.529Z,100992.72
2022-08-27T11:04:46.289Z,100987.31
2022-08-27T11:07:36.091Z,100985.09
2022-08-27T11:10:07.425Z,100988.72
2022-08-27T11:12:41.542Z,100993.94
2022-08-27T11:15:19.409Z,100990.41
2022-08-27T11:18:04.714Z,100992.88
2022-08-27T11:20:40.193Z,100994.72
2022-08-27T11:23:12.398Z,100983.88
2022-08-27T11:25:39.594Z,100983.38
2022-08-27T11:28:07.786Z,100989.75
2022-08-27T11:30:43.013Z,100985.31
2022-08-27T11:33:18.781Z,100990.88
2022-08-27T11:36:19.874Z,100993.81
2022-08-27T11:39:01.770Z,100987.28
2022-08-27T11:41:59.850Z,100979.03
2022-08-27T11:44:27.325Z,100984.91
2022-08-27T11:47:25.603Z,100975.84
2022-08-27T11:49:56.071Z,100984.25
2022-08-27T11:52:29.350Z,100981.22
2022-08-27T11:55:21.219Z,100980.66
2022-08-27T11:58:07.558Z,100987.22
2022-08-27T12:00:37.849Z,100986.47
2022-08-27T12:03:25.899Z,100988.56
2022-08-27T12:05:55.352Z,100982.50
2022-08-27T12:08:22.053Z,100989.25
2022-08-27T12:11:11.925Z,100970.47
2022-08-27T12:14:03.620Z,100972.56
2022-08-27T12:16:47.407Z,100979.13
2022-08-27T12:19:21.825Z,100974.47
2022-08-27T12:22:25.528Z,100986.28
2022-08-27T12:24:56.107Z,100984.00
2022-08-27T12:27:25.838Z,100987.06
2022-08-27T12:29:57.118Z,100992.94
2022-08-27T12:32:36.030Z,100991.41
2022-08-27T12:35:35.229Z,100983.75
2022-08-27T12:38:17.657Z,100990.22
2022-08-27T12:41:00.385Z,100990.47
2022-08-27T12:43:29.618Z,100978.84
2022-08-27T12:46:03.840Z,100983.28
2022-08-27T12:48:46.285Z,100986.88
2022-08-27T12:51:36.260Z,100984.41
2022-08-27T12:54:51.420Z,100988.84
2022-08-27T12:57:42.202Z,100981.69
2022-08-27T13:00:19.271Z,100973.69
2022-08-27T13:03:31.959Z,100978.75
2022-08-27T13:06:00.913Z,100978.78
2022-08-27T13:08:34.669Z,100969.91
2022-08-27T13:11:12.745Z,100975.31
2022-08-27T13:13:41.390Z,100978.28
2022-08-27T13:16:08.234Z,100972.50
2022-08-27T13:18:36.714Z,100968.84
2022-08-27T13:21:07.154Z,100966.56
2022-08-27T13:23:35.273Z,100972.22
2022-08-27T13:26:09.789Z,100953.72
2022-08-27T13:28:40.190Z,100958.72
2022-08-27T13:31:09.765Z,100956.34
2022-08-27T13:33:39.075Z,100954.53
2022-08-27T13:36:06.855Z,100961.31
2022-08-27T13:38:47.855Z,100951.34
2022-08-27T13:41:29.253Z,100950.66
2022-08-27T13:43:59.399Z,100952.03
2022-08-27T13:46:29.980Z,100949.66
2022-08-27T13:48:59.320Z,100942.88
2022-08-27T13:51:32.372Z,100944.00
2022-08-27T13:54:14.450Z,100937.94
2022-08-27T13:56:47.210Z,100945.75
2022-08-27T13:59:26.720Z,100932.59
2022-08-27T14:02:11.503Z,100935.13
2022-08-27T14:04:44.337Z,100931.84
2022-08-27T14:07:19.828Z,100928.88
2022-08-27T14:09:55.938Z,100932.53
2022-08-27T14:12:37.159Z,100933.09
2022-08-27T14:15:16.312Z,100937.09
2022-08-27T14:17:46.013Z,100935.25
2022-08-27T14:20:13.738Z,100934.97
2022-08-27T14:22:40.975Z,100934.97
2022-08-27T14:25:09.323Z,100941.59
2022-08-27T14:27:37.569Z,100933.97
2022-08-27T14:30:05.583Z,100937.94
2022-08-27T14:32:33.399Z,100933.53
2022-08-27T14:35:00.169Z,100934.94
2022-08-27T14:37:27.029Z,100938.91
2022-08-27T14:39:53.742Z,100930.69
2022-08-27T14:42:21.627Z,100945.13
2022-08-27T14:44:50.571Z,100941.16
2022-08-27T14:47:17.403Z,100932.69
2022-08-27T14:49:47.065Z,100939.34
2022-08-27T14:52:15.041Z,100931.53
2022-08-27T14:54:42.911Z,100938.31
2022-08-27T14:57:10.993Z,100934.31
2022-08-27T15:02:08.210Z,100932.94
2022-08-27T15:04:34.923Z,100931.91
2022-08-27T15:07:01.958Z,100925.63
2022-08-27T15:09:28.969Z,100944.28
2022-08-27T15:11:57.284Z,100933.50
2022-08-27T15:14:33.369Z,100936.91
2022-08-27T15:17:00.650Z,100935.59
2022-08-27T15:19:28.960Z,100931.28
2022-08-27T15:22:04.165Z,100930.22
2022-08-27T15:24:38.542Z,100931.53
2022-08-27T15:27:05.462Z,100942.53
2022-08-27T15:29:33.767Z,100927.84
2022-08-27T15:32:00.679Z,100930.91
2022-08-27T15:34:27.448Z,100935.31
2022-08-27T15:36:54.161Z,100939.25
2022-08-27T15:39:21.046Z,100928.00
2022-08-27T15:42:05.696Z,100930.88
2022-08-27T15:44:33.269Z,100933.38
2022-08-27T15:47:00.082Z,100924.75
2022-08-27T15:49:27.103Z,100931.31
2022-08-27T15:51:55.322Z,100926.38
2022-08-27T15:54:26.521Z,100931.72
2022-08-27T15:56:53.153Z,100933.19
2022-08-27T15:59:19.782Z,100925.00
2022-08-27T16:01:50.025Z,100926.78
2022-08-27T16:04:17.513Z,100925.84
2022-08-27T16:06:44.760Z,100924.03
2022-08-27T16:09:11.714Z,100922.56
2022-08-27T16:11:38.362Z,100921.44
2022-08-27T16:14:05.152Z,100923.19
2022-08-27T16:16:32.836Z,100928.78
2022-08-27T16:19:05.202Z,100932.41
2022-08-27T16:21:34.943Z,100932.59
2022-08-27T16:24:02.259Z,100928.09
2022-08-27T16:26:29.202Z,100927.81
2022-08-27T16:28:56.040Z,100925.13
2022-08-27T16:31:22.814Z,100927.19
2022-08-27T16:33:49.866Z,100934.47
2022-08-27T16:36:16.699Z,100932.97
2022-08-27T16:38:43.323Z,100934.16
2022-08-27T16:41:10.366Z,100927.97
2022-08-27T16:43:39.632Z,100916.66
2022-08-27T16:46:07.615Z,100923.94
2022-08-27T16:48:56.741Z,100930.03
2022-08-27T16:51:34.480Z,100931.72
2022-08-27T16:54:06.280Z,100932.41
2022-08-27T16:56:37.106Z,100923.47
2022-08-27T16:59:04.958Z,100925.47
2022-08-27T17:01:33.363Z,100923.81
2022-08-27T17:04:28.468Z,100921.44
2022-08-27T17:06:54.930Z,100934.28
2022-08-27T17:09:22.875Z,100935.94
2022-08-27T17:11:57.193Z,100935.63
2022-08-27T17:14:24.645Z,100937.66
2022-08-27T17:16:53.825Z,100934.94
2022-08-27T17:19:26.234Z,100929.22
2022-08-27T17:21:54.890Z,100936.44
2022-08-27T17:24:21.892Z,100940.03
2022-08-27T17:26:49.007Z,100932.91
2022-08-27T17:29:15.668Z,100944.50
2022-08-27T17:31:43.576Z,100948.13
2022-08-27T17:34:16.031Z,100950.69
2022-08-27T17:36:44.379Z,100948.00
2022-08-27T17:39:11.718Z,100944.81
2022-08-27T17:41:44.123Z,100935.75
2022-08-27T17:44:10.760Z,100940.72
2022-08-27T17:46:37.446Z,100941.41
2022-08-27T17:49:04.745Z,100940.56
2022-08-27T17:51:31.490Z,100947.19
2022-08-27T17:54:01.106Z,100937.63
2022-08-27T17:56:29.230Z,100949.16
2022-08-27T17:58:56.833Z,100944.59
2022-08-27T18:01:31.188Z,100950.16
2022-08-27T18:03:58.967Z,100953.16
2022-08-27T18:06:27.384Z,100948.81
2022-08-27T18:08:54.554Z,100949.59
2022-08-27T18:11:21.490Z,100952.88
2022-08-27T18:13:54.261Z,100950.91
2022-08-27T18:16:22.034Z,100953.31
2022-08-27T18:18:49.067Z,100969.88
2022-08-27T18:21:24.943Z,100960.88
2022-08-27T18:23:52.786Z,100959.00
2022-08-27T18:26:21.738Z,100963.41
2022-08-27T18:28:49.072Z,100964.53
2022-08-27T18:31:18.538Z,100980.97
2022-08-27T18:33:45.399Z,100982.25
2022-08-27T18:36:12.341Z,100991.59
2022-08-27T18:38:39.221Z,100984.91
2022-08-27T18:41:08.423Z,100992.41
2022-08-27T18:43:36.469Z,100988.59
2022-08-27T18:46:04.133Z,100995.09
2022-08-27T18:48:31.305Z,100995.38
2022-08-27T18:51:00.059Z,101002.16
2022-08-27T18:53:30.987Z,101001.00
2022-08-27T18:55:58.093Z,101010.31
2022-08-27T18:58:25.211Z,101004.91
2022-08-27T19:00:55.815Z,101000.50
2022-08-27T19:03:37.408Z,101009.09
2022-08-27T19:06:06.818Z,101013.16
2022-08-27T19:08:36.659Z,101014.72
2022-08-27T19:11:04.046Z,101019.59
2022-08-27T19:13:31.513Z,101026.78
2022-08-27T19:16:01.921Z,101024.75
2022-08-27T19:18:31.312Z,101029.66
2022-08-27T19:20:58.334Z,101032.88
2022-08-27T19:23:25.275Z,101034.22
2022-08-27T19:25:52.809Z,101036.59
2022-08-27T19:28:25.673Z,101044.03
2022-08-27T19:30:52.848Z,101042.63
2022-08-27T19:33:19.501Z,101045.56
2022-08-27T19:35:46.357Z,101046.09
2022-08-27T19:38:14.526Z,101050.69
2022-08-27T19:40:41.118Z,101050.31
2022-08-27T19:43:08.346Z,101046.41
2022-08-27T19:45:36.440Z,101055.41
2022-08-27T19:48:07.832Z,101049.72
2022-08-27T19:50:35.025Z,101054.34
2022-08-27T19:53:01.747Z,101058.88
2022-08-27T19:55:28.457Z,101070.94
2022-08-27T19:57:55.280Z,101057.19
2022-08-27T20:00:24.874Z,101066.59
2022-08-27T20:02:55.019Z,101068.81
2022-08-27T20:05:22.441Z,101077.19
2022-08-27T20:07:51.250Z,101075.88
2022-08-27T20:10:21.672Z,101077.81
2022-08-27T20:12:48.795Z,101079.91
2022-08-27T20:15:16.022Z,101078.31
2022-08-27T20:17:43.266Z,101078.81
2022-08-27T20:20:11.401Z,101081.63
2022-08-27T20:22:39.857Z,101078.34
2022-08-27T20:25:07.829Z,101080.53
2022-08-27T20:27:35.016Z,101080.31
2022-08-27T20:30:03.618Z,101079.81
2022-08-27T20:32:31.061Z,101080.19
2022-08-27T20:34:57.999Z,101078.63
2022-08-27T20:37:24.725Z,101089.56
2022-08-27T20:39:52.808Z,101092.38
2022-08-27T20:42:20.468Z,101091.75
2022-08-27T20:44:48.412Z,101088.47
2022-08-27T20:47:16.587Z,101092.09
2022-08-27T20:49:44.709Z,101092.34
2022-08-27T20:52:12.947Z,101099.66
2022-08-27T20:54:39.997Z,101106.44
2022-08-27T20:57:06.857Z,101104.41
2022-08-27T20:59:52.399Z,101095.75
2022-08-27T21:02:28.247Z,101110.31
2022-08-27T21:04:56.421Z,101109.44
2022-08-27T21:07:24.491Z,101112.34
2022-08-27T21:09:55.712Z,101112.72
2022-08-27T21:12:28.325Z,101117.22
2022-08-27T21:14:57.805Z,101113.06
2022-08-27T21:17:26.694Z,101118.53
2022-08-27T21:19:53.730Z,101125.84
2022-08-27T21:22:21.459Z,101120.22
2022-08-27T21:24:48.508Z,101122.28
2022-08-27T21:27:17.076Z,101119.72
2022-08-27T21:29:47.161Z,101128.00
2022-08-27T21:32:15.140Z,101136.00
2022-08-27T21:34:42.426Z,101134.53
2022-08-27T21:37:11.222Z,101137.31
2022-08-27T21:39:39.452Z,101134.03
2022-08-27T21:42:06.637Z,101153.25
2022-08-27T21:44:34.378Z,101139.03
2022-08-27T21:47:01.836Z,101142.88
2022-08-27T21:49:28.841Z,101137.81
2022-08-27T21:51:55.813Z,101137.91
2022-08-27T21:54:23.447Z,101136.09
2022-08-27T21:56:52.814Z,101138.97
2022-08-27T21:59:20.136Z,101149.56
2022-08-27T22:01:47.026Z,101139.22
2022-08-27T22:04:14.227Z,101146.38
2022-08-27T22:06:40.986Z,101145.75
2022-08-27T22:09:07.738Z,101142.22
2022-08-27T22:11:34.861Z,101146.84
2022-08-27T22:14:01.840Z,101148.75
2022-08-27T22:16:29.275Z,101149.91
2022-08-27T22:18:57.142Z,101149.16
2022-08-27T22:21:25.191Z,101150.16
2022-08-27T22:23:52.475Z,101148.44
2022-08-27T22:26:21.018Z,101162.75
2022-08-27T22:28:48.757Z,101160.94
2022-08-27T22:31:15.803Z,101162.84
2022-08-27T22:33:42.915Z,101170.88
2022-08-27T22:36:09.713Z,101166.63
2022-08-27T22:38:36.498Z,101169.50
2022-08-27T22:41:03.518Z,101169.84
2022-08-27T22:43:30.771Z,101173.56
2022-08-27T22:45:57.669Z,101179.03
2022-08-27T22:48:24.490Z,101181.06
2022-08-27T22:50:51.728Z,101169.13
2022-08-27T22:53:18.699Z,101172.97
2022-08-27T22:55:49.869Z,101166.25
2022-08-27T22:58:18.054Z,101166.69
2022-08-27T23:00:52.556Z,101164.97
2022-08-27T23:03:20.312Z,101169.69
2022-08-27T23:05:47.443Z,101169.78
2022-08-27T23:08:15.177Z,101162.94
2022-08-27T23:10:43.340Z,101173.22
2022-08-27T23:13:11.262Z,101175.13
2022-08-27T23:15:38.718Z,101162.13
2022-08-27T23:18:06.758Z,101166.94
2022-08-27T23:20:34.530Z,101173.63
2022-08-27T23:23:01.364Z,101167.88
2022-08-27T23:25:48.566Z,101171.78
2022-08-27T23:28:16.157Z,101170.63
2022-08-27T23:30:44.867Z,101174.44
2022-08-27T23:33:13.414Z,101173.69
2022-08-27T23:35:44.329Z,101178.56
2022-08-27T23:38:11.125Z,101176.22
2022-08-27T23:40:41.057Z,101184.44
2022-08-27T23:43:07.889Z,101176.84
2022-08-27T23:45:39.809Z,101176.28
2022-08-27T23:48:08.320Z,101178.53
2022-08-27T23:50:35.414Z,101181.41
2022-08-27T23:53:03.294Z,101176.28
2022-08-27T23:55:30.278Z,101185.41
2022-08-27T23:58:00.856Z,101181.06
